Kezdőlap
METAR-TAF:

METAR-TAF

Repülőterek :

Rochelle Municipal Airport (Koritz Field)

Rochelle, Illinois, Amerikai Egyesült Államok

földrajzi szélesség: 41-53-35N, földrajzi hosszúság: 089-04-42W, magasság: 238 m

Jelenlegi meteorológiai megfigyelések

A jelentés 22 perccel ezelõtt készült, 05:55 UTC
Nyugat-délnyugati szél 8 kt
Hőmérséklet 1°C
Páratartalom 100%
Légköri nyomás 1009 hPa
Látótávolság: 0.8 km
Borult 300 lábon
köd

METAR: KRPJ 180555Z AUTO 24008KT 1/2SM FG OVC003 01/01 A2981 RMK AO2 T00070007 10010 20006 400171035

Idő: 00:17 (06:17 UTC)


TAF: hiányzik

Meteorológiai megfigyelések és előrejelzések több, mint 4000 repülőtéren (METAR és TAF jelentéseket).

A térképen piros és sárga pontok jelzik az elérhető meteorológiai állomásokat.

Mozgassa az egeret a pont fölött, hogy megjelenjen az állomás neve.

Azután kattintson az időjárási megfigyelések és előrejelzések megtekintéséhez.

A térkép megváltoztatása: kattintson a fekete keresztel jelölt zöld gombra ráközelítéshez, a vonallal jelölt zöld gombra távolításhoz, vagy a zöld nyilakra a szomszédos térképek eléréséhez.


METAR-TAF: